map of KPVE home
KPVE - Airport
Location
City:  Lexington-Parsons, Tennessee, United States
Name:Beech River Regional
ICAO:KPVE
FAA LID:PVE

Details
Type:Airport (Airfield)
Use:Public/Civil
Latitude:3539'23"N (35.656362)
Longitude:8811'43"W (-88.195351)
Datum:WGS 1984
Elevation:487 ft (148 m)
Variation:2.77W (WMM2015 magnetic declination)
-0.09 annual change
Runways:1
Longest:6000 × 100 ft (1829 × 30.5 m), paved

Weather
METAR:KPVE 191035Z AUTO 19005KT 10SM SCT043 BKN050 OVC075 11/07 A3008 RMK A01

Related Locations
Nearby:
Farthest:YAUG: 11119 mi / 17894 km
Augusta [Augusta Airport], WA, AU

Find:

   beyond  
but within

Other Information
Maps:
NOTAMs:
Links:
Sources:

  
  • flag of United States
  • flag of Tennessee
  

Sectional Chart

Flight Planning
at skyvector.com

Satellite Image

Google Maps Satellite view

 

Copyright © 2004-2018 Karl L. Swartz. All rights reserved.
The Great Circle Mapper name and logo are trademarks of the Great Circle Mapper.
All other trademarks mentioned herein belong to their respective owners.
Please see credits for attibutions and further copyright information.

  Follow gcmap on Facebook Follow gcmap on Twitter Follow gcmap on Google+ GCmap on LinkedIn

hCard Microformat

Geo Microformat